»·PEaware :: N350TN KAVX-L88

N350TN :: KAVX-L88

FLIGHT INFORMATION

Flight Status: Arrived
Operator: Privately registered:
United States
More flights under this callsign
Pilot: David W. (17415)
Aircraft: PIPER PA-31/31P NAVAJO CHIEFTAIN
(PA31)
More flights by this aircraft type
Origin: KAVX Catalina
United States
Destination: L88 New Cuyama
United States
More flights between these airports :: More routes between these airports
Route: +SXC V208 VTU HENER OHIGH
File this flight plan on PilotEdge
Remarks:
Altitude:
(Current/Filed)
8,000ft
Speed:
(Current/Filed)
165kts
Departed: 29-Nov-17 06:38 PM
Arrived: 29-Nov-17 07:21 PM
Distance/Time
Traveled:
112nm/0:42
Distance/Time
To Go:
Arrived

Flight Plot

Page will automatically refresh every two minutes.

Flight plan parsing failed; only flown route is shown


Map Options




Map Legend


Flown Route
Filed Route
Departure Airport
Arrival Airport
Navaid (VOR, NDB)
Fix

Horizontal Profiles

Position Reports

Time Latitude Longitude Heading Altitude Ground
Speed
29-Nov-17 17:50 33.403121 -118.419662 68 1605ft 0kts
29-Nov-17 17:51 33.403121 -118.419661 68 1605ft 0kts
29-Nov-17 17:52 33.403121 -118.419661 68 1605ft 0kts
29-Nov-17 17:53 33.403121 -118.419661 68 1605ft 0kts
29-Nov-17 17:54 33.403122 -118.419660 68 1605ft 0kts
29-Nov-17 17:55 33.403122 -118.419660 68 1605ft 0kts
29-Nov-17 17:56 33.403122 -118.419660 68 1605ft 0kts
29-Nov-17 17:57 33.403122 -118.419659 68 1605ft 0kts
29-Nov-17 17:58 33.403122 -118.419659 68 1605ft 0kts
29-Nov-17 17:59 33.403122 -118.419658 68 1605ft 0kts
29-Nov-17 18:00 33.403122 -118.419658 68 1605ft 0kts
29-Nov-17 18:01 33.403122 -118.419658 68 1605ft 0kts
29-Nov-17 18:02 33.403122 -118.419657 68 1605ft 0kts
29-Nov-17 18:03 33.403123 -118.419656 68 1604ft 0kts
29-Nov-17 18:04 33.403123 -118.419655 68 1604ft 0kts
29-Nov-17 18:05 33.403126 -118.419646 68 1604ft 0kts
29-Nov-17 18:12 33.944675 -118.408943 319 130ft 0kts
29-Nov-17 18:13 33.944675 -118.408944 319 130ft 0kts
29-Nov-17 18:14 33.944675 -118.408944 319 130ft 0kts
29-Nov-17 18:15 33.944676 -118.408944 319 130ft 0kts
29-Nov-17 18:19 33.403222 -118.419640 55 1605ft 0kts
29-Nov-17 18:20 33.403223 -118.419640 55 1605ft 0kts
29-Nov-17 18:21 33.403223 -118.419640 55 1605ft 0kts
29-Nov-17 18:22 33.403223 -118.419639 55 1605ft 0kts
29-Nov-17 18:23 33.403223 -118.419639 55 1605ft 0kts
29-Nov-17 18:24 33.403223 -118.419639 55 1605ft 0kts
29-Nov-17 18:25 33.403224 -118.419638 55 1605ft 0kts
29-Nov-17 18:26 33.403224 -118.419638 55 1605ft 0kts
29-Nov-17 18:27 33.403224 -118.419637 55 1605ft 0kts
29-Nov-17 18:28 33.403226 -118.419634 55 1605ft 0kts
29-Nov-17 18:29 33.403229 -118.419629 55 1605ft 0kts
29-Nov-17 18:30 33.403272 -118.419556 52 1605ft 0kts
29-Nov-17 18:31 33.403272 -118.419556 52 1605ft 0kts
29-Nov-17 18:32 33.403273 -118.419555 52 1605ft 0kts
29-Nov-17 18:33 33.403273 -118.419555 52 1605ft 0kts
29-Nov-17 18:34 33.403273 -118.419554 52 1605ft 0kts
29-Nov-17 18:35 33.403273 -118.419554 52 1605ft 0kts
29-Nov-17 18:36 33.403644 -118.418918 54 1605ft 0kts
29-Nov-17 18:37 33.403674 -118.419043 230 1605ft 6kts
29-Nov-17 18:38 33.402900 -118.420169 207 1605ft 1kts
29-Nov-17 18:39 33.402798 -118.420159 139 1606ft 0kts
29-Nov-17 18:40 33.402798 -118.420159 139 1606ft 0kts
29-Nov-17 18:41 33.402798 -118.420159 139 1606ft 0kts
29-Nov-17 18:42 33.402797 -118.420158 139 1606ft 0kts
29-Nov-17 18:43 33.409781 -118.408071 46 1804ft 107kts
29-Nov-17 18:44 33.425973 -118.426135 246 3291ft 119kts
29-Nov-17 18:45 33.392554 -118.418267 105 4038ft 168kts
29-Nov-17 18:46 33.361701 -118.394465 209 4441ft 152kts
29-Nov-17 18:47 33.372412 -118.435997 343 4008ft 168kts
29-Nov-17 18:48 33.417619 -118.452249 319 3638ft 183kts
29-Nov-17 18:49 33.449049 -118.497725 296 3877ft 179kts
29-Nov-17 18:50 33.475447 -118.542335 313 4813ft 161kts
29-Nov-17 18:51 33.503352 -118.581360 307 5887ft 156kts
29-Nov-17 18:52 33.529279 -118.622891 311 6612ft 169kts
29-Nov-17 18:53 33.558884 -118.665872 310 7545ft 163kts
29-Nov-17 18:54 33.589684 -118.710591 310 8046ft 189kts
29-Nov-17 18:55 33.623876 -118.762894 310 7998ft 205kts
29-Nov-17 18:56 33.658735 -118.816550 307 8013ft 204kts
29-Nov-17 18:57 33.695550 -118.869168 315 7979ft 203kts
29-Nov-17 18:58 33.729300 -118.923643 303 8023ft 203kts
29-Nov-17 18:59 33.758091 -118.968741 313 8004ft 203kts
29-Nov-17 19:00 33.806411 -119.021551 350 8060ft 195kts
29-Nov-17 19:01 33.851646 -119.021639 357 7977ft 198kts
29-Nov-17 19:02 33.907822 -119.028749 358 7980ft 207kts
29-Nov-17 19:03 33.971077 -119.032975 359 8017ft 202kts
29-Nov-17 19:04 34.017530 -119.038504 356 8002ft 202kts
29-Nov-17 19:05 34.072957 -119.049594 359 7965ft 202kts
29-Nov-17 19:06 34.121957 -119.055170 338 8254ft 197kts
29-Nov-17 19:07 34.168594 -119.097335 327 8009ft 208kts
29-Nov-17 19:08 34.217313 -119.134521 326 8020ft 205kts
29-Nov-17 19:09 34.264879 -119.173796 330 7989ft 206kts
29-Nov-17 19:10 34.312002 -119.214156 328 7913ft 208kts
29-Nov-17 19:11 34.360480 -119.251901 330 7898ft 207kts
29-Nov-17 19:12 34.408317 -119.289842 329 7896ft 212kts
29-Nov-17 19:13 34.455217 -119.330605 330 8030ft 203kts
29-Nov-17 19:14 34.502281 -119.370836 331 8027ft 204kts
29-Nov-17 19:15 34.551124 -119.407419 333 8023ft 206kts
29-Nov-17 19:16 34.601581 -119.440249 332 8060ft 203kts
29-Nov-17 19:17 34.649570 -119.474819 332 7866ft 210kts
29-Nov-17 19:18 34.699041 -119.508889 336 8068ft 200kts
29-Nov-17 19:19 34.748049 -119.544643 326 7829ft 213kts
29-Nov-17 19:20 34.795353 -119.584000 327 7872ft 209kts
29-Nov-17 19:21 34.845391 -119.614561 343 8032ft 203kts
29-Nov-17 19:22 34.904642 -119.636432 344 5128ft 218kts
29-Nov-17 19:23 34.951102 -119.630549 83 3719ft 168kts
29-Nov-17 19:24 34.924314 -119.627053 258 3029ft 153kts
29-Nov-17 19:25 34.932677 -119.667976 296 2454ft 113kts
29-Nov-17 19:26 34.942456 -119.691063 307 2207ft 14kts
29-Nov-17 19:27 34.943478 -119.690893 180 2207ft 0kts
29-Nov-17 19:28 34.943478 -119.690893 180 2207ft 0kts
29-Nov-17 19:29 34.943478 -119.690893 180 2207ft 0kts
29-Nov-17 19:30 34.943478 -119.690893 180 2207ft 0kts
29-Nov-17 19:31 34.943478 -119.690893 180 2207ft 0kts
29-Nov-17 19:32 34.943478 -119.690893 180 2207ft 0kts
29-Nov-17 19:33 34.943478 -119.690893 180 2207ft 0kts
29-Nov-17 19:34 34.943478 -119.690893 180 2207ft 0kts
29-Nov-17 19:35 34.943477 -119.690893 180 2207ft 0kts
29-Nov-17 19:36 34.943477 -119.690893 180 2207ft 0kts
29-Nov-17 19:37 34.943477 -119.690893 180 2207ft 0kts
29-Nov-17 19:38 34.943476 -119.690893 180 2207ft 0kts
29-Nov-17 19:39 34.942598 -119.691131 146 2207ft 0kts
29-Nov-17 19:40 34.942598 -119.691131 146 2207ft 0kts

Navigation Log

Ident Type
Flight plan parsing failed, navigation log unavailable